createdAt,value
2022-09-04T00:00:21.623Z,1.40
2022-09-04T00:03:01.607Z,3.43
2022-09-04T00:05:28.776Z,1.40
2022-09-04T00:08:05.774Z,1.50
2022-09-04T00:10:38.038Z,1.50
2022-09-04T00:13:27.586Z,1.40
2022-09-04T00:16:16.571Z,1.60
2022-09-04T00:19:02.945Z,1.50
2022-09-04T00:21:36.365Z,1.57
2022-09-04T00:24:09.243Z,1.50
2022-09-04T00:26:55.231Z,1.60
2022-09-04T00:29:41.222Z,1.33
2022-09-04T00:32:19.026Z,1.60
2022-09-04T00:35:05.079Z,1.40
2022-09-04T00:38:01.580Z,1.30
2022-09-04T00:40:31.349Z,1.40
2022-09-04T00:42:58.834Z,1.30
2022-09-04T00:45:28.903Z,1.50
2022-09-04T00:47:56.134Z,1.43
2022-09-04T00:50:23.306Z,1.40
2022-09-04T00:53:06.178Z,1.50
2022-09-04T00:55:54.131Z,1.40
2022-09-04T00:58:42.502Z,1.30
2022-09-04T01:01:14.477Z,1.30
2022-09-04T01:03:44.835Z,1.40
2022-09-04T01:06:11.966Z,1.20
2022-09-04T01:08:40.745Z,1.57
2022-09-04T01:11:26.728Z,1.40
2022-09-04T01:14:13.125Z,1.40
2022-09-04T01:17:00.517Z,1.30
2022-09-04T01:19:46.578Z,1.33
2022-09-04T01:22:21.208Z,1.20
2022-09-04T01:24:54.961Z,1.40
2022-09-04T01:27:29.665Z,1.30
2022-09-04T01:30:15.434Z,1.30
2022-09-04T01:32:45.142Z,1.37
2022-09-04T01:35:15.127Z,1.30
2022-09-04T01:38:11.522Z,1.23
2022-09-04T01:40:44.935Z,1.50
2022-09-04T01:43:13.281Z,1.30
2022-09-04T01:45:43.715Z,1.30
2022-09-04T01:48:13.814Z,1.20
2022-09-04T01:50:44.807Z,1.60
2022-09-04T01:53:19.501Z,1.40
2022-09-04T01:56:18.852Z,1.30
2022-09-04T01:58:54.549Z,1.40
2022-09-04T02:01:29.882Z,1.30
2022-09-04T02:04:03.162Z,1.20
2022-09-04T02:06:39.210Z,1.30
2022-09-04T02:09:10.934Z,1.30
2022-09-04T02:11:41.015Z,1.30
2022-09-04T02:14:17.818Z,1.30
2022-09-04T02:17:18.587Z,1.40
2022-09-04T02:19:51.858Z,1.40
2022-09-04T02:22:37.774Z,1.20
2022-09-04T02:25:23.837Z,1.23
2022-09-04T02:28:09.866Z,1.40
2022-09-04T02:30:54.508Z,1.23
2022-09-04T02:33:27.716Z,1.13
2022-09-04T02:35:54.948Z,1.30
2022-09-04T02:38:46.279Z,1.20
2022-09-04T02:41:26.632Z,1.20
2022-09-04T02:44:12.676Z,1.37
2022-09-04T02:46:58.243Z,1.23
2022-09-04T02:49:37.526Z,1.20
2022-09-04T02:52:07.472Z,1.20
2022-09-04T02:54:53.224Z,1.13
2022-09-04T02:57:38.276Z,1.20
2022-09-04T03:00:15.424Z,1.20
2022-09-04T03:02:48.364Z,1.20
2022-09-04T03:05:42.191Z,1.30
2022-09-04T03:08:09.331Z,1.30
2022-09-04T03:10:56.757Z,1.50
2022-09-04T03:13:34.804Z,1.40
2022-09-04T03:16:06.096Z,1.47
2022-09-04T03:18:39.555Z,1.40
2022-09-04T03:21:28.197Z,1.40
2022-09-04T03:23:59.789Z,1.40
2022-09-04T03:26:32.867Z,1.30
2022-09-04T03:29:11.205Z,1.30
2022-09-04T03:31:45.397Z,1.40
2022-09-04T03:34:18.571Z,1.50
2022-09-04T03:37:00.412Z,1.40
2022-09-04T03:39:30.855Z,1.40
2022-09-04T03:42:11.065Z,1.20
2022-09-04T03:44:53.352Z,1.40
2022-09-04T03:47:28.429Z,1.37
2022-09-04T03:49:58.315Z,1.40
2022-09-04T03:52:36.836Z,1.20
2022-09-04T03:55:22.343Z,1.63
2022-09-04T03:58:05.690Z,1.30
2022-09-04T04:00:57.085Z,1.40
2022-09-04T04:03:41.243Z,1.40
2022-09-04T04:06:16.727Z,1.33
2022-09-04T04:08:43.929Z,1.33
2022-09-04T04:11:11.921Z,1.40
2022-09-04T04:13:58.211Z,1.40
2022-09-04T04:16:40.526Z,1.20
2022-09-04T04:19:26.639Z,1.50
2022-09-04T04:22:02.348Z,1.50
2022-09-04T04:24:51.303Z,1.40
2022-09-04T04:27:21.787Z,1.30
2022-09-04T04:30:01.424Z,1.20
2022-09-04T04:32:28.556Z,1.40
2022-09-04T04:35:03.004Z,1.20
2022-09-04T04:37:51.868Z,1.40
2022-09-04T04:40:34.377Z,1.23
2022-09-04T04:43:06.225Z,1.40
2022-09-04T04:45:51.845Z,1.40
2022-09-04T04:48:23.782Z,1.30
2022-09-04T04:51:09.824Z,1.47
2022-09-04T04:53:47.625Z,1.50
2022-09-04T04:56:45.886Z,1.23
2022-09-04T04:59:23.425Z,1.40
2022-09-04T05:01:53.742Z,1.20
2022-09-04T05:04:40.390Z,1.20
2022-09-04T05:07:28.164Z,1.40
2022-09-04T05:09:58.319Z,1.37
2022-09-04T05:12:25.444Z,1.60
2022-09-04T05:15:00.404Z,1.40
2022-09-04T05:17:32.976Z,1.30
2022-09-04T05:20:06.060Z,1.40
2022-09-04T05:22:41.606Z,1.30
2022-09-04T05:25:11.639Z,1.47
2022-09-04T05:27:44.620Z,1.50
2022-09-04T05:30:15.969Z,1.40
2022-09-04T05:32:45.950Z,1.20
2022-09-04T05:35:35.295Z,1.47
2022-09-04T05:38:17.005Z,1.27
2022-09-04T05:40:53.406Z,1.20
2022-09-04T05:43:26.664Z,1.27
2022-09-04T05:46:04.628Z,1.30
2022-09-04T05:48:31.786Z,1.30
2022-09-04T05:51:08.070Z,1.40
2022-09-04T05:53:44.370Z,1.33
2022-09-04T05:56:17.448Z,1.50
2022-09-04T05:58:56.699Z,1.27
2022-09-04T06:01:24.028Z,1.20
2022-09-04T06:03:51.198Z,1.20
2022-09-04T06:06:23.453Z,1.30
2022-09-04T06:09:13.328Z,1.37
2022-09-04T06:11:55.761Z,1.30
2022-09-04T06:14:30.868Z,1.30
2022-09-04T06:17:00.922Z,1.30
2022-09-04T06:19:30.814Z,1.07
2022-09-04T06:22:05.008Z,1.17
2022-09-04T06:24:32.148Z,1.20
2022-09-04T06:26:59.344Z,1.37
2022-09-04T06:29:32.853Z,1.23
2022-09-04T06:32:09.427Z,1.43
2022-09-04T06:34:47.144Z,1.30
2022-09-04T06:37:14.271Z,1.10
2022-09-04T06:39:49.210Z,1.10
2022-09-04T06:42:21.618Z,1.30
2022-09-04T06:45:12.638Z,1.30
2022-09-04T06:47:42.921Z,1.20
2022-09-04T06:50:16.106Z,1.17
2022-09-04T06:52:52.343Z,1.20
2022-09-04T06:55:29.007Z,1.20
2022-09-04T06:57:58.985Z,1.30
2022-09-04T07:00:28.571Z,1.33
2022-09-04T07:03:11.038Z,1.20
2022-09-04T07:05:53.216Z,1.10
2022-09-04T07:08:28.200Z,1.10
2022-09-04T07:11:13.702Z,1.33
2022-09-04T07:14:00.702Z,1.20
2022-09-04T07:16:35.832Z,1.20
2022-09-04T07:19:23.244Z,1.10
2022-09-04T07:21:58.926Z,1.17
2022-09-04T07:24:43.707Z,1.00
2022-09-04T07:27:23.128Z,1.13
2022-09-04T07:30:02.484Z,1.27
2022-09-04T07:32:48.334Z,1.20
2022-09-04T07:35:48.174Z,1.20
2022-09-04T07:38:15.479Z,1.30
2022-09-04T07:40:47.761Z,1.10
2022-09-04T07:43:17.733Z,1.20
2022-09-04T07:45:51.372Z,1.10
2022-09-04T07:48:28.905Z,1.00
2022-09-04T07:51:04.958Z,1.30
2022-09-04T07:53:44.369Z,1.07
2022-09-04T07:56:29.849Z,1.20
2022-09-04T07:59:02.870Z,1.10
2022-09-04T08:01:48.315Z,1.03
2022-09-04T08:04:44.026Z,1.30
2022-09-04T08:07:30.097Z,1.00
2022-09-04T08:10:16.141Z,0.90
2022-09-04T08:12:56.744Z,1.00
2022-09-04T08:15:40.943Z,1.20
2022-09-04T08:18:22.119Z,1.10
2022-09-04T08:21:07.326Z,1.00
2022-09-04T08:23:34.480Z,1.10
2022-09-04T08:26:14.261Z,0.97
2022-09-04T08:28:57.002Z,0.90
2022-09-04T08:31:32.221Z,0.73
2022-09-04T08:34:03.301Z,0.97
2022-09-04T08:36:45.833Z,0.90
2022-09-04T08:39:26.218Z,1.03
2022-09-04T08:42:11.787Z,1.00
2022-09-04T08:44:48.079Z,0.97
2022-09-04T08:47:42.748Z,1.10
2022-09-04T08:50:18.449Z,0.80
2022-09-04T08:53:04.521Z,1.00
2022-09-04T08:55:31.630Z,0.90
2022-09-04T08:58:13.783Z,1.00
2022-09-04T09:00:59.840Z,0.83
2022-09-04T09:04:02.339Z,0.87
2022-09-04T09:06:42.209Z,1.07
2022-09-04T09:09:27.979Z,0.82
2022-09-04T09:12:14.175Z,0.80
2022-09-04T09:14:50.451Z,0.88
2022-09-04T09:17:24.396Z,0.85
2022-09-04T09:20:24.399Z,0.80
2022-09-04T09:23:13.724Z,0.90
2022-09-04T09:25:46.345Z,0.70
2022-09-04T09:28:32.561Z,0.88
2022-09-04T09:31:12.397Z,0.90
2022-09-04T09:33:54.632Z,0.73
2022-09-04T09:36:21.796Z,0.73
2022-09-04T09:39:01.104Z,0.80
2022-09-04T09:41:46.844Z,0.70
2022-09-04T09:44:26.768Z,0.90
2022-09-04T09:47:16.460Z,0.80
2022-09-04T09:50:02.405Z,0.70
2022-09-04T09:52:48.283Z,0.70
2022-09-04T09:55:18.469Z,0.65
2022-09-04T09:58:04.348Z,0.70
2022-09-04T10:00:57.172Z,0.70
2022-09-04T10:03:39.709Z,0.80
2022-09-04T10:06:24.951Z,0.63
2022-09-04T10:09:12.709Z,0.77
2022-09-04T10:11:45.653Z,0.57
2022-09-04T10:14:12.790Z,0.98
2022-09-04T10:17:00.605Z,0.80
2022-09-04T10:19:39.642Z,0.70
2022-09-04T10:22:25.353Z,1.15
2022-09-04T10:25:04.892Z,0.68
2022-09-04T10:27:43.996Z,0.85
2022-09-04T10:30:22.105Z,0.90
2022-09-04T10:32:49.276Z,1.00
2022-09-04T10:35:19.354Z,0.70
2022-09-04T10:38:05.128Z,0.70
2022-09-04T10:40:46.118Z,0.70
2022-09-04T10:43:39.842Z,0.80
2022-09-04T10:46:13.944Z,0.77
2022-09-04T10:49:10.986Z,0.80
2022-09-04T10:51:53.250Z,0.70
2022-09-04T10:54:32.334Z,0.70
2022-09-04T10:57:02.241Z,0.70
2022-09-04T10:59:29.569Z,0.68
2022-09-04T11:02:17.192Z,0.80
2022-09-04T11:04:47.215Z,0.85
2022-09-04T11:07:20.293Z,0.60
2022-09-04T11:09:56.510Z,0.80
2022-09-04T11:12:32.553Z,0.77
2022-09-04T11:14:59.756Z,1.08
2022-09-04T11:17:45.861Z,0.93
2022-09-04T11:20:25.333Z,0.90
2022-09-04T11:22:55.240Z,0.60
2022-09-04T11:25:42.794Z,0.82
2022-09-04T11:28:44.276Z,0.90
2022-09-04T11:31:11.452Z,0.90
2022-09-04T11:33:41.410Z,0.90
2022-09-04T11:36:18.904Z,0.70
2022-09-04T11:39:04.622Z,0.80
2022-09-04T11:41:34.784Z,0.85
2022-09-04T11:44:22.211Z,1.00
2022-09-04T11:46:52.338Z,1.02
2022-09-04T11:49:34.496Z,0.80
2022-09-04T11:52:06.141Z,0.50
2022-09-04T11:54:52.115Z,0.90
2022-09-04T11:57:22.280Z,0.70
2022-09-04T12:00:06.244Z,0.70
2022-09-04T12:02:52.044Z,0.75
2022-09-04T12:05:41.746Z,0.70
2022-09-04T12:08:27.835Z,0.70
2022-09-04T12:11:04.478Z,0.80
2022-09-04T12:13:52.702Z,0.70
2022-09-04T12:16:33.013Z,0.80
2022-09-04T12:19:14.055Z,0.88
2022-09-04T12:21:44.372Z,0.75
2022-09-04T12:24:18.127Z,0.90
2022-09-04T12:26:53.617Z,0.70
2022-09-04T12:29:22.314Z,0.60
2022-09-04T12:31:51.725Z,0.98
2022-09-04T12:34:28.149Z,0.80
2022-09-04T12:37:13.952Z,0.80
2022-09-04T12:39:51.223Z,0.80
2022-09-04T12:42:23.668Z,0.75
2022-09-04T12:45:14.127Z,1.00
2022-09-04T12:47:55.501Z,0.73
2022-09-04T12:50:28.117Z,1.20
2022-09-04T12:53:19.201Z,0.93
2022-09-04T12:56:00.649Z,0.80
2022-09-04T12:58:48.751Z,0.85
2022-09-04T13:01:35.399Z,1.02
2022-09-04T13:04:11.549Z,0.50
2022-09-04T13:06:44.872Z,0.50
2022-09-04T13:09:30.272Z,0.60
2022-09-04T13:12:17.338Z,0.77
2022-09-04T13:14:50.859Z,0.80
2022-09-04T13:17:25.998Z,0.75
2022-09-04T13:20:00.551Z,0.82
2022-09-04T13:22:30.804Z,0.80
2022-09-04T13:25:15.756Z,0.80
2022-09-04T13:27:43.492Z,0.68
2022-09-04T13:30:29.578Z,0.63
2022-09-04T13:33:15.756Z,0.77
2022-09-04T13:36:01.314Z,0.60
2022-09-04T13:38:37.371Z,0.70
2022-09-04T13:41:22.744Z,0.60
2022-09-04T13:44:08.532Z,0.90
2022-09-04T13:46:38.296Z,0.68
2022-09-04T13:49:10.429Z,0.60
2022-09-04T13:51:40.952Z,0.70
2022-09-04T13:54:25.426Z,0.77
2022-09-04T13:57:14.864Z,0.65
2022-09-04T13:59:44.357Z,0.93
2022-09-04T14:02:14.489Z,0.82
2022-09-04T14:04:46.313Z,0.80
2022-09-04T14:07:24.672Z,0.75
2022-09-04T14:09:53.196Z,0.85
2022-09-04T14:12:27.358Z,0.90
2022-09-04T14:14:55.745Z,0.70
2022-09-04T14:17:28.282Z,0.90
2022-09-04T14:20:01.579Z,0.60
2022-09-04T14:22:36.944Z,0.70
2022-09-04T14:25:06.699Z,0.93
2022-09-04T14:27:43.398Z,0.80
2022-09-04T14:30:23.350Z,0.60
2022-09-04T14:33:07.413Z,0.77
2022-09-04T14:35:46.959Z,0.55
2022-09-04T14:38:21.418Z,0.80
2022-09-04T14:40:49.156Z,0.50
2022-09-04T14:43:22.562Z,0.85
2022-09-04T14:46:04.788Z,0.73
2022-09-04T14:48:40.480Z,0.60
2022-09-04T14:51:31.287Z,0.65
2022-09-04T14:54:02.009Z,0.47
2022-09-04T14:56:35.257Z,0.43
2022-09-04T14:59:12.840Z,0.80
2022-09-04T15:01:59.503Z,0.70
2022-09-04T15:04:42.387Z,0.88
2022-09-04T15:07:29.810Z,0.35
2022-09-04T15:10:17.303Z,0.70
2022-09-04T15:12:45.793Z,0.50
2022-09-04T15:15:33.225Z,0.60
2022-09-04T15:18:05.649Z,0.60
2022-09-04T15:20:36.945Z,0.60
2022-09-04T15:23:22.939Z,0.68
2022-09-04T15:25:59.140Z,0.50
2022-09-04T15:28:34.544Z,0.57
2022-09-04T15:31:15.976Z,0.47
2022-09-04T15:33:44.398Z,0.80
2022-09-04T15:36:17.099Z,0.90
2022-09-04T15:38:54.732Z,0.80
2022-09-04T15:41:21.867Z,0.50
2022-09-04T15:43:48.993Z,0.60
2022-09-04T15:46:23.752Z,0.52
2022-09-04T15:49:10.148Z,0.80
2022-09-04T15:51:40.439Z,0.90
2022-09-04T15:54:07.669Z,0.70
2022-09-04T15:56:37.138Z,0.60
2022-09-04T15:59:15.176Z,0.80
2022-09-04T16:01:49.332Z,0.60
2022-09-04T16:04:42.571Z,0.70
2022-09-04T16:07:19.623Z,0.70
2022-09-04T16:09:53.195Z,0.73
2022-09-04T16:12:20.431Z,0.90
2022-09-04T16:14:54.602Z,0.75
2022-09-04T16:17:27.231Z,0.90
2022-09-04T16:19:54.441Z,0.90
2022-09-04T16:22:38.623Z,0.73
2022-09-04T16:25:11.071Z,0.70
2022-09-04T16:27:47.772Z,0.70
2022-09-04T16:30:47.436Z,1.48
2022-09-04T16:33:28.182Z,0.93
2022-09-04T16:35:59.867Z,0.73
2022-09-04T16:38:47.469Z,0.73
2022-09-04T16:41:18.328Z,0.80
2022-09-04T16:44:08.902Z,0.75
2022-09-04T16:46:37.524Z,0.95
2022-09-04T16:49:19.740Z,0.60
2022-09-04T16:51:47.709Z,0.90
2022-09-04T16:54:28.646Z,0.95
2022-09-04T16:57:12.967Z,0.95
2022-09-04T16:59:43.517Z,0.82
2022-09-04T17:02:36.028Z,1.08
2022-09-04T17:05:28.043Z,1.23
2022-09-04T17:08:03.436Z,0.90
2022-09-04T17:10:45.717Z,1.10
2022-09-04T17:13:15.655Z,0.93
2022-09-04T17:15:54.001Z,1.05
2022-09-04T17:18:25.626Z,0.95
2022-09-04T17:23:41.241Z,1.20
2022-09-04T17:28:57.652Z,1.60
2022-09-04T17:29:14.874Z,1.25
2022-09-04T17:29:38.324Z,1.10
2022-09-04T17:34:01.656Z,1.33
2022-09-04T17:40:42.889Z,1.08
2022-09-04T17:40:54.948Z,1.40
2022-09-04T17:41:36.072Z,1.30
2022-09-04T17:44:10.296Z,1.35
2022-09-04T17:46:44.822Z,1.13
2022-09-04T17:49:22.813Z,1.25
2022-09-04T17:52:03.860Z,1.25
2022-09-04T17:54:33.419Z,1.20
2022-09-04T17:57:04.106Z,1.40
2022-09-04T17:59:37.556Z,1.30
2022-09-04T18:02:21.650Z,1.30
2022-09-04T18:04:56.453Z,1.10
2022-09-04T18:08:07.648Z,1.30
2022-09-04T18:10:42.205Z,1.30
2022-09-04T18:13:36.221Z,1.40
2022-09-04T18:16:11.594Z,1.47
2022-09-04T18:18:41.836Z,1.30
2022-09-04T18:21:14.366Z,1.20
2022-09-04T18:23:51.855Z,1.37
2022-09-04T18:26:23.192Z,1.30
2022-09-04T18:28:56.012Z,1.30
2022-09-04T18:37:09.519Z,1.30
2022-09-04T18:37:22.451Z,1.50
2022-09-04T18:37:47.431Z,1.20
2022-09-04T18:40:14.995Z,1.40
2022-09-04T18:49:55.475Z,1.30
2022-09-04T18:50:38.073Z,1.17
2022-09-04T18:50:46.485Z,1.20
2022-09-04T18:51:21.200Z,1.23
2022-09-04T18:53:49.229Z,1.40
2022-09-04T18:56:27.796Z,1.60
2022-09-04T18:59:27.972Z,1.33
2022-09-04T19:02:05.425Z,1.40
2022-09-04T19:04:51.758Z,1.30
2022-09-04T19:07:18.900Z,1.40
2022-09-04T19:09:57.363Z,1.37
2022-09-04T19:12:35.650Z,1.23
2022-09-04T19:15:37.753Z,1.30
2022-09-04T19:18:14.044Z,1.40
2022-09-04T19:20:47.310Z,1.30
2022-09-04T19:23:18.140Z,1.30
2022-09-04T19:25:53.330Z,1.57
2022-09-04T19:28:52.349Z,1.30
2022-09-04T19:31:27.120Z,1.30
2022-09-04T19:34:08.544Z,1.30
2022-09-04T19:36:35.708Z,1.40
2022-09-04T19:46:01.338Z,1.30
2022-09-04T19:46:07.373Z,1.30
2022-09-04T19:46:12.706Z,1.40
2022-09-04T19:47:57.547Z,1.43
2022-09-04T19:53:32.277Z,1.37
2022-09-04T19:53:37.574Z,1.17
2022-09-04T19:56:29.230Z,1.40
2022-09-04T19:59:12.286Z,1.30
2022-09-04T20:01:43.549Z,1.40
2022-09-04T20:04:12.260Z,1.37
2022-09-04T20:06:46.419Z,1.60
2022-09-04T20:09:17.056Z,1.50
2022-09-04T20:11:47.796Z,1.40
2022-09-04T20:14:24.578Z,1.50
2022-09-04T20:17:01.773Z,1.30
2022-09-04T20:19:43.202Z,1.40
2022-09-04T20:22:31.645Z,1.37
2022-09-04T20:25:15.582Z,1.40
2022-09-04T20:27:45.985Z,1.40
2022-09-04T20:30:24.715Z,1.40
2022-09-04T20:32:55.901Z,1.30
2022-09-04T20:35:33.016Z,1.43
2022-09-04T20:38:12.448Z,1.27
2022-09-04T20:40:44.494Z,1.50
2022-09-04T20:43:17.652Z,1.30
2022-09-04T20:49:16.658Z,1.40
2022-09-04T20:52:54.895Z,1.47
2022-09-04T20:52:56.055Z,1.37
2022-09-04T20:54:57.314Z,1.30
2022-09-04T21:02:36.065Z,1.40
2022-09-04T21:03:23.007Z,1.60
2022-09-04T21:03:28.999Z,1.60
2022-09-04T21:06:07.138Z,1.40
2022-09-04T21:08:40.823Z,1.50
2022-09-04T21:11:39.138Z,1.43
2022-09-04T21:14:02.356Z,1.50
2022-09-04T21:16:35.689Z,1.40
2022-09-04T21:19:28.871Z,1.40
2022-09-04T21:22:21.083Z,1.30
2022-09-04T21:25:12.522Z,1.40
2022-09-04T21:27:45.804Z,1.60
2022-09-04T21:30:15.270Z,1.40
2022-09-04T21:32:45.405Z,1.43
2022-09-04T21:35:28.253Z,1.43
2022-09-04T21:38:03.763Z,1.40
2022-09-04T21:40:50.297Z,1.40
2022-09-04T21:43:42.507Z,1.40
2022-09-04T21:46:28.857Z,1.40
2022-09-04T21:49:24.401Z,1.37
2022-09-04T21:51:54.375Z,1.70
2022-09-04T21:56:14.241Z,1.50
2022-09-04T22:02:25.877Z,1.47
2022-09-04T22:02:41.704Z,1.70
2022-09-04T22:03:35.007Z,1.40
2022-09-04T22:06:09.057Z,1.37
2022-09-04T22:13:30.443Z,1.30
2022-09-04T22:13:41.292Z,1.30
2022-09-04T22:14:32.714Z,1.30
2022-09-04T22:16:59.935Z,1.40
2022-09-04T22:19:35.534Z,1.37
2022-09-04T22:22:03.539Z,1.40
2022-09-04T22:24:49.872Z,1.50
2022-09-04T22:28:07.326Z,1.40
2022-09-04T22:30:49.276Z,1.40
2022-09-04T22:33:17.948Z,1.57
2022-09-04T22:36:03.617Z,1.60
2022-09-04T22:38:49.560Z,1.40
2022-09-04T22:41:29.003Z,1.40
2022-09-04T22:44:15.531Z,1.30
2022-09-04T22:46:48.624Z,1.43
2022-09-04T22:49:25.495Z,1.30
2022-09-04T22:52:10.771Z,1.50
2022-09-04T22:54:43.784Z,1.37
2022-09-04T22:57:13.301Z,1.30
2022-09-04T22:59:52.774Z,1.40
2022-09-04T23:03:07.108Z,1.40
2022-09-04T23:05:25.732Z,1.40
2022-09-04T23:12:30.280Z,1.30
2022-09-04T23:14:02.711Z,1.40
2022-09-04T23:14:19.373Z,1.20
2022-09-04T23:17:05.685Z,1.37
2022-09-04T23:25:25.776Z,1.53
2022-09-04T23:26:43.775Z,1.50
2022-09-04T23:26:48.655Z,1.30
2022-09-04T23:28:29.248Z,1.30
2022-09-04T23:31:06.898Z,1.37
2022-09-04T23:33:40.640Z,1.60
2022-09-04T23:36:21.540Z,1.40
2022-09-04T23:39:00.477Z,1.30
2022-09-04T23:41:36.410Z,1.30
2022-09-04T23:44:44.912Z,1.40
2022-09-04T23:47:22.414Z,1.40
2022-09-04T23:50:11.651Z,1.47
2022-09-04T23:52:49.654Z,1.30
2022-09-04T23:55:22.737Z,1.40
2022-09-04T23:58:28.626Z,1.43
